Time;durP1;ratioP1;P1;durP2;ratioP2;P2;SDS_P1;SDS_P2;PMS_P1;PMS_P2;Temp;Humidity;BMP_temperature;BMP_pressure;BME280_temperature;BME280_humidity;BME280_pressure;Samples;Min_cycle;Max_cycle;Signal;HPM_P1;HPM_P2
2022/08/08 00:01:42;;;;;;;;;;;21.00;69.30;;;;;;4894466;29;19935;-81
2022/08/08 00:04:41;;;;;;;;;;;20.90;70.10;;;;;;4877293;29;19928;-82
2022/08/08 00:07:21;;;;;;;;;;;20.80;70.10;;;;;;4901230;29;20209;-82
2022/08/08 00:10:10;;;;;;;;;;;20.70;70.80;;;;;;4882736;29;19928;-81
2022/08/08 00:12:50;;;;;;;;;;;20.70;71.10;;;;;;4879917;29;19970;-82
2022/08/08 00:15:24;;;;;;;;;;;20.70;71.60;;;;;;4888616;29;19928;-82
2022/08/08 00:18:30;;;;;;;;;;;20.60;71.10;;;;;;4875474;29;19928;-82
2022/08/08 00:21:00;;;;;;;;;;;20.60;71.60;;;;;;4886725;29;19928;-82
2022/08/08 00:23:39;;;;;;;;;;;20.50;72.10;;;;;;4876105;29;19934;-82
2022/08/08 00:26:18;;;;;;;;;;;20.50;70.50;;;;;;4868896;29;19931;-81
2022/08/08 00:28:53;;;;;;;;;;;20.70;67.20;;;;;;4873258;29;19955;-82
2022/08/08 00:31:22;;;;;;;;;;;20.80;64.60;;;;;;4877347;29;19988;-81
2022/08/08 00:37:31;;;;;;;;;;;21.10;61.70;;;;;;4883245;29;19932;-81
2022/08/08 00:40:27;;;;;;;;;;;21.30;60.00;;;;;;4886000;29;19963;-82
2022/08/08 00:43:14;;;;;;;;;;;21.50;59.20;;;;;;4875074;29;19991;-83
2022/08/08 00:45:57;;;;;;;;;;;21.60;58.50;;;;;;4887797;29;19955;-81
2022/08/08 00:48:36;;;;;;;;;;;21.70;57.80;;;;;;4876566;29;19931;-81
2022/08/08 00:51:21;;;;;;;;;;;21.90;56.60;;;;;;4886591;29;19932;-82
2022/08/08 00:53:49;;;;;;;;;;;22.00;55.80;;;;;;4882375;29;20415;-85
2022/08/08 00:56:50;;;;;;;;;;;22.10;54.70;;;;;;4883527;29;20000;-85
2022/08/08 00:59:29;;;;;;;;;;;22.30;53.30;;;;;;4890601;29;19928;-81
2022/08/08 01:02:27;;;;;;;;;;;22.40;53.30;;;;;;4887695;29;19934;-82
2022/08/08 01:05:32;;;;;;;;;;;22.50;53.70;;;;;;4884474;29;20377;-82
2022/08/08 01:08:25;;;;;;;;;;;22.50;53.70;;;;;;4894854;29;20014;-82
2022/08/08 01:11:07;;;;;;;;;;;22.60;51.80;;;;;;4902683;29;19951;-82
2022/08/08 01:13:49;;;;;;;;;;;22.70;52.00;;;;;;4898386;29;19975;-84
2022/08/08 01:16:58;;;;;;;;;;;22.70;51.40;;;;;;4881250;29;19927;-83
2022/08/08 01:19:43;;;;;;;;;;;22.70;51.50;;;;;;4868663;29;19937;-83
2022/08/08 01:22:36;;;;;;;;;;;22.70;51.40;;;;;;4881942;29;19935;-83
2022/08/08 01:25:19;;;;;;;;;;;22.70;51.40;;;;;;4902368;29;19966;-86
2022/08/08 01:28:10;;;;;;;;;;;22.70;51.60;;;;;;4890928;29;19927;-82
2022/08/08 01:30:47;;;;;;;;;;;22.60;50.90;;;;;;4890178;29;19931;-85
2022/08/08 01:33:31;;;;;;;;;;;22.70;49.80;;;;;;4887560;29;19971;-84
2022/08/08 01:36:34;;;;;;;;;;;22.80;50.00;;;;;;4891178;29;19934;-82
2022/08/08 01:39:10;;;;;;;;;;;22.80;49.60;;;;;;4868405;29;20022;-84
2022/08/08 01:41:59;;;;;;;;;;;22.80;49.30;;;;;;4883994;29;19952;-83
2022/08/08 01:44:28;;;;;;;;;;;22.90;49.00;;;;;;4898388;29;19932;-83
2022/08/08 01:47:12;;;;;;;;;;;22.90;49.10;;;;;;4873870;29;19932;-83
2022/08/08 01:50:19;;;;;;;;;;;22.90;49.00;;;;;;4882520;29;19959;-82
2022/08/08 01:53:15;;;;;;;;;;;22.90;48.90;;;;;;4883522;29;19943;-82
2022/08/08 01:56:14;;;;;;;;;;;23.00;48.90;;;;;;4892155;29;19919;-84
2022/08/08 01:59:05;;;;;;;;;;;22.90;48.60;;;;;;4901748;29;19935;-83
2022/08/08 02:01:33;;;;;;;;;;;23.00;48.60;;;;;;4893471;29;19918;-84
2022/08/08 02:04:28;;;;;;;;;;;23.00;48.80;;;;;;4874373;29;19932;-83
2022/08/08 02:06:58;;;;;;;;;;;23.00;49.00;;;;;;4876422;29;19935;-83
2022/08/08 02:09:30;;;;;;;;;;;22.90;49.00;;;;;;4878335;29;19931;-82
2022/08/08 02:12:22;;;;;;;;;;;22.90;49.30;;;;;;4874031;29;19927;-82
2022/08/08 02:14:59;;;;;;;;;;;22.80;49.50;;;;;;4892057;29;19928;-82
2022/08/08 02:17:32;;;;;;;;;;;22.80;49.50;;;;;;4880905;29;20357;-85
2022/08/08 02:20:25;;;;;;;;;;;22.80;49.80;;;;;;4900674;29;20040;-82
2022/08/08 02:23:24;;;;;;;;;;;22.70;49.60;;;;;;4887010;29;20066;-82
2022/08/08 02:26:07;;;;;;;;;;;22.70;50.00;;;;;;4888361;29;19927;-83
2022/08/08 02:28:35;;;;;;;;;;;22.70;49.80;;;;;;4869981;29;19932;-83
2022/08/08 02:31:08;;;;;;;;;;;22.70;49.80;;;;;;4890774;29;20458;-83
2022/08/08 02:34:07;;;;;;;;;;;22.60;49.90;;;;;;4885871;29;20030;-85
2022/08/08 02:36:52;;;;;;;;;;;22.60;49.60;;;;;;4879630;29;19927;-82
2022/08/08 02:39:23;;;;;;;;;;;22.70;49.50;;;;;;4875722;29;19931;-83
2022/08/08 02:42:26;;;;;;;;;;;22.60;49.80;;;;;;4876226;29;19935;-84
2022/08/08 02:45:23;;;;;;;;;;;22.60;50.00;;;;;;4874884;29;20185;-81
2022/08/08 02:47:56;;;;;;;;;;;22.60;50.40;;;;;;4871171;29;19931;-82
2022/08/08 02:50:35;;;;;;;;;;;22.50;50.80;;;;;;4869870;29;19976;-83
2022/08/08 02:53:05;;;;;;;;;;;22.40;50.90;;;;;;4866171;29;19937;-82
2022/08/08 02:55:51;;;;;;;;;;;22.30;51.20;;;;;;4868257;29;19928;-85
2022/08/08 02:58:43;;;;;;;;;;;22.30;51.70;;;;;;4890410;29;19975;-83
2022/08/08 03:01:19;;;;;;;;;;;22.10;57.20;;;;;;4881508;29;19979;-82
2022/08/08 03:04:04;;;;;;;;;;;21.90;61.80;;;;;;4867468;29;19928;-82
2022/08/08 03:07:03;;;;;;;;;;;21.60;62.90;;;;;;4866286;29;20015;-84
2022/08/08 03:09:41;;;;;;;;;;;21.30;64.20;;;;;;4861119;29;20357;-83
2022/08/08 03:12:13;;;;;;;;;;;21.10;65.70;;;;;;4882489;29;19963;-85
2022/08/08 03:14:58;;;;;;;;;;;21.00;65.40;;;;;;4886879;29;20353;-83
2022/08/08 03:18:11;;;;;;;;;;;20.90;65.40;;;;;;4886304;29;19932;-85
2022/08/08 03:20:46;;;;;;;;;;;20.80;67.70;;;;;;4879162;29;19923;-83
2022/08/08 03:23:19;;;;;;;;;;;20.60;68.90;;;;;;4876320;29;19935;-83
2022/08/08 03:25:46;;;;;;;;;;;20.60;68.70;;;;;;4874948;29;19931;-83
2022/08/08 03:28:20;;;;;;;;;;;20.50;70.30;;;;;;4889011;29;19950;-84
2022/08/08 03:30:51;;;;;;;;;;;20.30;71.30;;;;;;4861992;29;21355;-83
2022/08/08 03:33:38;;;;;;;;;;;20.20;71.10;;;;;;4870790;29;20015;-82
2022/08/08 03:36:25;;;;;;;;;;;20.20;70.90;;;;;;4886332;29;19957;-82
2022/08/08 03:38:53;;;;;;;;;;;20.10;70.80;;;;;;4866326;29;19934;-83
2022/08/08 03:41:40;;;;;;;;;;;20.10;70.60;;;;;;4880874;29;20037;-83
2022/08/08 03:44:31;;;;;;;;;;;20.00;70.30;;;;;;4871333;29;20006;-83
2022/08/08 03:46:58;;;;;;;;;;;20.00;70.60;;;;;;4863502;29;19932;-82
2022/08/08 03:49:39;;;;;;;;;;;20.00;70.60;;;;;;4883708;29;19927;-84
2022/08/08 03:52:27;;;;;;;;;;;19.90;70.40;;;;;;4874495;29;20019;-83
2022/08/08 03:54:54;;;;;;;;;;;20.00;71.00;;;;;;4870446;29;19936;-85
2022/08/08 03:57:37;;;;;;;;;;;19.90;71.00;;;;;;4872444;29;19934;-83
2022/08/08 04:00:26;;;;;;;;;;;19.90;71.50;;;;;;4881523;29;20014;-84
2022/08/08 04:03:00;;;;;;;;;;;19.80;72.20;;;;;;4870953;29;19932;-83
2022/08/08 04:05:31;;;;;;;;;;;19.80;73.20;;;;;;4868986;29;20030;-84
2022/08/08 04:07:58;;;;;;;;;;;19.70;72.70;;;;;;4871957;29;19971;-84
2022/08/08 04:10:27;;;;;;;;;;;19.70;73.50;;;;;;4865690;29;20346;-84
2022/08/08 04:12:58;;;;;;;;;;;19.60;74.50;;;;;;4865139;29;19928;-84
2022/08/08 04:15:25;;;;;;;;;;;19.60;73.90;;;;;;4865918;29;19928;-84
2022/08/08 04:18:04;;;;;;;;;;;19.50;75.80;;;;;;4877729;29;19931;-84
2022/08/08 04:20:31;;;;;;;;;;;19.40;75.00;;;;;;4865169;29;19943;-84
2022/08/08 04:22:58;;;;;;;;;;;19.30;75.00;;;;;;4871029;29;20349;-84
2022/08/08 04:25:29;;;;;;;;;;;19.30;76.00;;;;;;4878650;29;19959;-83
2022/08/08 04:28:04;;;;;;;;;;;19.30;75.80;;;;;;4868110;29;19928;-85
2022/08/08 04:30:50;;;;;;;;;;;19.30;76.20;;;;;;4876920;29;20349;-84
2022/08/08 04:33:23;;;;;;;;;;;19.30;76.70;;;;;;4878416;29;19928;-83
2022/08/08 04:35:52;;;;;;;;;;;19.30;77.10;;;;;;4867053;29;20301;-83
2022/08/08 04:38:21;;;;;;;;;;;19.20;77.20;;;;;;4867513;29;19957;-84
2022/08/08 04:40:49;;;;;;;;;;;19.20;77.40;;;;;;4862305;29;20009;-83
2022/08/08 04:43:21;;;;;;;;;;;19.20;77.60;;;;;;4873173;29;19931;-84
2022/08/08 04:45:58;;;;;;;;;;;19.10;77.50;;;;;;4887354;29;19970;-84
2022/08/08 04:48:24;;;;;;;;;;;19.10;77.90;;;;;;4885056;29;19932;-83
2022/08/08 04:50:52;;;;;;;;;;;19.10;77.90;;;;;;4861263;29;19931;-85
2022/08/08 04:53:19;;;;;;;;;;;19.10;78.00;;;;;;4879005;29;20334;-83
2022/08/08 04:56:05;;;;;;;;;;;19.00;78.30;;;;;;4876558;29;20605;-83
2022/08/08 04:58:32;;;;;;;;;;;19.00;78.70;;;;;;4872583;29;19928;-84
2022/08/08 05:00:59;;;;;;;;;;;19.00;78.80;;;;;;4859120;29;20305;-84
2022/08/08 05:03:34;;;;;;;;;;;18.90;79.30;;;;;;4870739;29;19991;-84
2022/08/08 05:06:21;;;;;;;;;;;18.90;79.50;;;;;;4866249;29;20006;-82
2022/08/08 05:08:54;;;;;;;;;;;18.90;79.40;;;;;;4882426;29;19935;-84
2022/08/08 05:11:21;;;;;;;;;;;18.90;79.70;;;;;;4875399;29;19980;-84
2022/08/08 05:13:51;;;;;;;;;;;18.90;79.90;;;;;;4872491;29;19931;-83
2022/08/08 05:16:27;;;;;;;;;;;18.80;80.10;;;;;;4884423;29;20274;-84
2022/08/08 05:19:15;;;;;;;;;;;18.80;80.70;;;;;;4893713;29;20376;-84
2022/08/08 05:22:02;;;;;;;;;;;18.80;81.20;;;;;;4880670;29;20392;-83
2022/08/08 05:24:29;;;;;;;;;;;18.70;81.60;;;;;;4869807;29;19927;-84
2022/08/08 05:26:56;;;;;;;;;;;18.70;82.10;;;;;;4879807;29;19984;-84
2022/08/08 05:29:24;;;;;;;;;;;18.70;82.70;;;;;;4867276;29;19927;-84
2022/08/08 05:31:55;;;;;;;;;;;18.70;82.50;;;;;;4873175;29;20854;-83
2022/08/08 05:34:31;;;;;;;;;;;18.80;82.50;;;;;;4867365;29;19951;-85
2022/08/08 05:36:58;;;;;;;;;;;18.80;82.50;;;;;;4866959;29;19963;-84
2022/08/08 05:39:26;;;;;;;;;;;18.80;82.40;;;;;;4877391;29;19932;-84
2022/08/08 05:42:00;;;;;;;;;;;18.90;82.30;;;;;;4874737;29;19932;-84
2022/08/08 05:44:29;;;;;;;;;;;18.90;82.10;;;;;;4862723;29;20342;-82
2022/08/08 05:46:57;;;;;;;;;;;19.00;82.40;;;;;;4863670;29;19934;-83
2022/08/08 05:49:30;;;;;;;;;;;19.00;82.60;;;;;;4874506;29;19991;-82
2022/08/08 05:51:57;;;;;;;;;;;19.00;82.90;;;;;;4863874;29;20353;-84
2022/08/08 05:54:24;;;;;;;;;;;19.10;82.30;;;;;;4867383;29;19999;-82
2022/08/08 05:57:14;;;;;;;;;;;19.10;82.90;;;;;;4866634;29;20387;-82
2022/08/08 05:59:42;;;;;;;;;;;19.10;82.40;;;;;;4871021;29;19983;-80
2022/08/08 06:05:14;;;;;;;;;;;19.20;82.00;;;;;;4878622;29;19955;-87
2022/08/08 06:08:00;;;;;;;;;;;19.30;81.20;;;;;;4859310;29;19932;-84
2022/08/08 06:10:37;;;;;;;;;;;19.40;81.40;;;;;;4866491;29;19932;-85
2022/08/08 06:13:07;;;;;;;;;;;19.40;81.60;;;;;;4875623;29;19928;-81
2022/08/08 06:15:34;;;;;;;;;;;19.50;80.70;;;;;;4862201;29;19969;-83
2022/08/08 06:18:19;;;;;;;;;;;19.50;79.70;;;;;;4865089;29;20026;-84
2022/08/08 06:20:50;;;;;;;;;;;19.60;78.80;;;;;;4863953;29;19971;-84
2022/08/08 06:23:21;;;;;;;;;;;19.70;78.40;;;;;;4860675;29;19932;-85
2022/08/08 06:26:10;;;;;;;;;;;19.80;78.20;;;;;;4862365;29;19928;-83
2022/08/08 06:29:00;;;;;;;;;;;19.80;77.50;;;;;;4869062;29;20393;-83
2022/08/08 06:31:44;;;;;;;;;;;19.90;77.00;;;;;;4868834;29;19987;-83
2022/08/08 06:34:36;;;;;;;;;;;20.00;75.20;;;;;;4868465;29;20022;-83
2022/08/08 06:37:06;;;;;;;;;;;20.20;74.60;;;;;;4874255;29;20019;-83
2022/08/08 06:39:55;;;;;;;;;;;20.20;74.90;;;;;;4873121;29;19938;-83
2022/08/08 06:42:23;;;;;;;;;;;20.30;70.70;;;;;;4872770;29;19931;-84
2022/08/08 06:44:53;;;;;;;;;;;20.50;66.60;;;;;;4869293;29;19928;-84
2022/08/08 06:47:20;;;;;;;;;;;20.70;65.60;;;;;;4865227;29;19938;-80
2022/08/08 06:49:59;;;;;;;;;;;20.80;64.10;;;;;;4876291;29;19943;-82
2022/08/08 06:52:30;;;;;;;;;;;21.00;64.40;;;;;;4864288;29;19938;-84
2022/08/08 06:54:59;;;;;;;;;;;21.10;64.50;;;;;;4862132;29;19935;-83
2022/08/08 06:57:26;;;;;;;;;;;21.20;63.70;;;;;;4870658;29;20384;-84
2022/08/08 06:59:55;;;;;;;;;;;21.30;62.60;;;;;;4868161;29;19928;-85
2022/08/08 07:02:40;;;;;;;;;;;21.40;62.40;;;;;;4876658;29;19936;-84
2022/08/08 07:05:15;;;;;;;;;;;21.50;61.90;;;;;;4878850;29;19927;-85
2022/08/08 07:07:46;;;;;;;;;;;21.60;62.20;;;;;;4868144;29;19959;-82
2022/08/08 07:10:18;;;;;;;;;;;21.70;62.10;;;;;;4880576;29;19934;-86
2022/08/08 07:12:51;;;;;;;;;;;21.80;62.30;;;;;;4860195;29;19932;-84
2022/08/08 07:15:22;;;;;;;;;;;21.90;61.80;;;;;;4867023;29;19928;-83
2022/08/08 07:18:09;;;;;;;;;;;22.00;61.30;;;;;;4864386;29;19928;-83
2022/08/08 07:21:02;;;;;;;;;;;22.20;60.80;;;;;;4865237;29;19988;-83
2022/08/08 07:23:37;;;;;;;;;;;22.30;58.70;;;;;;4893617;29;20392;-81
2022/08/08 07:26:24;;;;;;;;;;;22.40;56.60;;;;;;4876735;29;19928;-83
2022/08/08 07:29:02;;;;;;;;;;;22.60;56.10;;;;;;4857140;29;20350;-81
2022/08/08 07:31:37;;;;;;;;;;;22.80;55.10;;;;;;4870042;29;19927;-82
2022/08/08 07:34:05;;;;;;;;;;;23.10;53.50;;;;;;4887379;29;19934;-83
2022/08/08 07:36:36;;;;;;;;;;;23.30;52.00;;;;;;4869414;29;19932;-83
2022/08/08 07:39:16;;;;;;;;;;;23.40;52.40;;;;;;4884630;29;20438;-81
2022/08/08 07:41:49;;;;;;;;;;;23.60;53.10;;;;;;4869305;29;19975;-83
2022/08/08 07:44:31;;;;;;;;;;;23.70;53.30;;;;;;4865948;29;19931;-82
2022/08/08 07:47:06;;;;;;;;;;;23.90;52.50;;;;;;4860980;29;20408;-84
2022/08/08 07:49:33;;;;;;;;;;;24.00;52.50;;;;;;4864216;29;19928;-84
2022/08/08 07:52:06;;;;;;;;;;;24.20;52.50;;;;;;4876153;29;19971;-84
2022/08/08 07:54:47;;;;;;;;;;;24.30;49.60;;;;;;4859203;29;19928;-81
2022/08/08 07:57:28;;;;;;;;;;;24.50;49.00;;;;;;4878452;29;20316;-81
2022/08/08 08:00:09;;;;;;;;;;;24.60;47.30;;;;;;4874159;29;20014;-84
2022/08/08 08:03:03;;;;;;;;;;;24.80;48.10;;;;;;4884279;29;19994;-80
2022/08/08 08:05:37;;;;;;;;;;;25.00;48.20;;;;;;4878130;29;20026;-82
2022/08/08 08:08:10;;;;;;;;;;;25.20;46.80;;;;;;4867074;29;19928;-82
2022/08/08 08:10:38;;;;;;;;;;;25.40;45.90;;;;;;4892226;29;19935;-83
2022/08/08 08:13:28;;;;;;;;;;;25.50;46.50;;;;;;4870340;29;20385;-81
2022/08/08 08:16:20;;;;;;;;;;;25.50;45.10;;;;;;4873897;29;20444;-84
2022/08/08 08:18:54;;;;;;;;;;;25.70;44.40;;;;;;4865814;29;19934;-85
2022/08/08 08:21:24;;;;;;;;;;;25.90;44.10;;;;;;4871460;29;19935;-81
2022/08/08 08:24:11;;;;;;;;;;;26.10;43.90;;;;;;4876835;29;19932;-83
2022/08/08 08:26:41;;;;;;;;;;;26.30;43.90;;;;;;4871572;29;19928;-83
2022/08/08 08:29:18;;;;;;;;;;;26.40;45.00;;;;;;4874642;29;19928;-82
2022/08/08 08:31:45;;;;;;;;;;;26.50;43.90;;;;;;4870626;29;20408;-83
2022/08/08 08:34:23;;;;;;;;;;;26.50;44.20;;;;;;4873884;29;19928;-79
2022/08/08 08:36:59;;;;;;;;;;;26.70;44.20;;;;;;4879299;29;20035;-82
2022/08/08 08:39:37;;;;;;;;;;;26.80;42.90;;;;;;4875783;29;20341;-83
2022/08/08 08:42:24;;;;;;;;;;;26.80;40.60;;;;;;4874151;29;19928;-82
2022/08/08 08:45:05;;;;;;;;;;;26.70;42.30;;;;;;4873731;29;19928;-82
2022/08/08 08:47:52;;;;;;;;;;;26.80;42.90;;;;;;4874505;29;20444;-83
2022/08/08 08:50:24;;;;;;;;;;;26.90;41.80;;;;;;4873158;29;19936;-83
2022/08/08 08:53:02;;;;;;;;;;;26.90;41.60;;;;;;4872022;29;19931;-84
2022/08/08 08:55:32;;;;;;;;;;;27.00;42.60;;;;;;4877163;29;19983;-84
2022/08/08 08:58:07;;;;;;;;;;;27.30;43.90;;;;;;4874868;29;19935;-83
2022/08/08 09:00:36;;;;;;;;;;;27.50;43.40;;;;;;4874447;29;19965;-81
2022/08/08 09:03:23;;;;;;;;;;;27.70;42.90;;;;;;4890746;29;19955;-81
2022/08/08 09:06:12;;;;;;;;;;;27.90;42.80;;;;;;4876050;29;20488;-84
2022/08/08 09:09:02;;;;;;;;;;;28.10;42.30;;;;;;4896046;29;19971;-83
2022/08/08 09:11:33;;;;;;;;;;;28.20;42.10;;;;;;4875660;29;19928;-81
2022/08/08 09:14:13;;;;;;;;;;;28.40;41.30;;;;;;4874861;29;19927;-81
2022/08/08 09:16:41;;;;;;;;;;;28.60;41.20;;;;;;4878949;29;19934;-82
2022/08/08 09:19:08;;;;;;;;;;;28.70;40.90;;;;;;4887066;29;19928;-84
2022/08/08 09:21:35;;;;;;;;;;;28.70;39.80;;;;;;4872077;29;20415;-81
2022/08/08 09:24:22;;;;;;;;;;;28.70;40.70;;;;;;4876224;29;19932;-83
2022/08/08 09:26:54;;;;;;;;;;;28.70;41.30;;;;;;4878738;29;20383;-83
2022/08/08 09:29:22;;;;;;;;;;;28.90;41.50;;;;;;4878365;29;20385;-83
2022/08/08 09:31:54;;;;;;;;;;;29.10;41.20;;;;;;4876291;29;19979;-83
2022/08/08 09:34:24;;;;;;;;;;;29.10;41.80;;;;;;4871501;29;19943;-82
2022/08/08 09:37:02;;;;;;;;;;;29.30;41.70;;;;;;4877337;29;19928;-84
2022/08/08 09:39:55;;;;;;;;;;;29.30;41.60;;;;;;4885536;29;20287;-84
2022/08/08 09:42:22;;;;;;;;;;;29.50;42.00;;;;;;4873405;29;19950;-82
2022/08/08 09:44:57;;;;;;;;;;;29.60;41.30;;;;;;4870328;29;19980;-82
2022/08/08 09:47:31;;;;;;;;;;;29.60;41.50;;;;;;4876540;29;19994;-81
2022/08/08 09:50:19;;;;;;;;;;;29.60;41.10;;;;;;4873064;29;20055;-82
2022/08/08 09:52:50;;;;;;;;;;;29.70;40.50;;;;;;4879528;29;19928;-82
2022/08/08 09:55:24;;;;;;;;;;;29.80;40.40;;;;;;4878252;29;19927;-84
2022/08/08 09:58:15;;;;;;;;;;;29.90;39.70;;;;;;4876215;29;19987;-82
2022/08/08 10:00:54;;;;;;;;;;;30.00;39.00;;;;;;4881768;29;19931;-81
2022/08/08 10:03:25;;;;;;;;;;;29.90;38.80;;;;;;4876608;29;20019;-84
2022/08/08 10:05:52;;;;;;;;;;;30.00;39.10;;;;;;4884651;29;19963;-82
2022/08/08 10:08:19;;;;;;;;;;;30.10;38.40;;;;;;4877240;29;20022;-85
2022/08/08 10:10:48;;;;;;;;;;;30.00;38.50;;;;;;4876622;29;20392;-82
2022/08/08 10:13:18;;;;;;;;;;;30.00;40.50;;;;;;4866251;29;20415;-81
2022/08/08 10:15:53;;;;;;;;;;;30.10;39.10;;;;;;4873832;29;19928;-83
2022/08/08 10:18:28;;;;;;;;;;;30.20;40.20;;;;;;4880546;29;19962;-84
2022/08/08 10:21:04;;;;;;;;;;;30.20;39.80;;;;;;4882491;29;19985;-83
2022/08/08 10:23:50;;;;;;;;;;;30.30;40.10;;;;;;4886260;29;19936;-83
2022/08/08 10:26:28;;;;;;;;;;;30.30;40.20;;;;;;4877874;29;19931;-85
2022/08/08 10:29:18;;;;;;;;;;;30.30;40.00;;;;;;4875794;29;19938;-86
2022/08/08 10:34:48;;;;;;;;;;;30.60;40.60;;;;;;4875337;29;19932;-83
2022/08/08 10:37:30;;;;;;;;;;;30.70;38.80;;;;;;4869457;29;19935;-83
2022/08/08 10:40:20;;;;;;;;;;;30.70;37.80;;;;;;4869880;29;20089;-82
2022/08/08 10:42:57;;;;;;;;;;;30.60;39.40;;;;;;4854874;29;19934;-86
2022/08/08 10:45:25;;;;;;;;;;;30.80;38.90;;;;;;4867408;29;20396;-82
2022/08/08 10:47:57;;;;;;;;;;;30.90;38.20;;;;;;4862575;29;19927;-82
2022/08/08 10:50:37;;;;;;;;;;;31.00;37.80;;;;;;4874469;29;19932;-82
2022/08/08 10:53:09;;;;;;;;;;;30.80;37.20;;;;;;4875506;29;20337;-85
2022/08/08 10:55:41;;;;;;;;;;;30.90;37.50;;;;;;4873390;29;19936;-82
2022/08/08 10:58:12;;;;;;;;;;;30.90;36.70;;;;;;4873472;29;20312;-82
2022/08/08 11:00:44;;;;;;;;;;;31.00;35.90;;;;;;4866364;29;19936;-83
2022/08/08 11:03:27;;;;;;;;;;;31.20;36.20;;;;;;4876693;29;20002;-86
2022/08/08 11:06:15;;;;;;;;;;;31.30;36.00;;;;;;4874893;29;19928;-82
2022/08/08 11:08:41;;;;;;;;;;;31.50;35.70;;;;;;4876457;29;19931;-81
2022/08/08 11:11:19;;;;;;;;;;;31.50;35.40;;;;;;4872512;29;19928;-81
2022/08/08 11:14:07;;;;;;;;;;;31.60;36.30;;;;;;4871114;29;20015;-83
2022/08/08 11:16:42;;;;;;;;;;;31.90;35.20;;;;;;4865206;29;20346;-82
2022/08/08 11:19:13;;;;;;;;;;;32.00;35.20;;;;;;4864806;29;20280;-82
2022/08/08 11:21:46;;;;;;;;;;;32.00;34.90;;;;;;4878631;29;20345;-83
2022/08/08 11:24:25;;;;;;;;;;;32.10;36.00;;;;;;4877994;29;19938;-81
2022/08/08 11:26:53;;;;;;;;;;;32.00;35.60;;;;;;4862423;29;19929;-83
2022/08/08 11:29:25;;;;;;;;;;;32.00;34.70;;;;;;4860206;29;19928;-82
2022/08/08 11:32:14;;;;;;;;;;;32.00;33.10;;;;;;4844218;29;19935;-87
2022/08/08 11:34:45;;;;;;;;;;;32.10;33.70;;;;;;4839922;29;20048;-83
2022/08/08 11:37:33;;;;;;;;;;;32.30;33.30;;;;;;4844754;29;19930;-83
2022/08/08 11:40:20;;;;;;;;;;;32.30;32.80;;;;;;4869673;29;20880;-83
2022/08/08 11:42:56;;;;;;;;;;;32.30;32.20;;;;;;4843714;29;19928;-87
2022/08/08 11:45:24;;;;;;;;;;;32.40;31.90;;;;;;4849256;29;20004;-86
2022/08/08 11:47:55;;;;;;;;;;;32.50;33.40;;;;;;4838040;29;19932;-86
2022/08/08 11:50:32;;;;;;;;;;;32.60;34.30;;;;;;4846249;29;19932;-83
2022/08/08 11:53:01;;;;;;;;;;;32.90;33.90;;;;;;4849057;29;19928;-82
2022/08/08 11:55:34;;;;;;;;;;;33.00;32.80;;;;;;4866842;29;19928;-85
2022/08/08 11:58:05;;;;;;;;;;;33.10;32.30;;;;;;4860171;29;19928;-82
2022/08/08 12:00:51;;;;;;;;;;;33.20;32.40;;;;;;4838123;29;19971;-83
2022/08/08 12:03:19;;;;;;;;;;;33.30;32.30;;;;;;4836609;29;20404;-81
2022/08/08 12:05:47;;;;;;;;;;;33.40;31.70;;;;;;4853812;29;19929;-81
2022/08/08 12:08:16;;;;;;;;;;;33.50;31.60;;;;;;4843518;29;20332;-82
2022/08/08 12:10:48;;;;;;;;;;;33.50;32.30;;;;;;4871578;29;19927;-87
2022/08/08 12:13:20;;;;;;;;;;;33.70;30.80;;;;;;4838843;29;19974;-82
2022/08/08 12:16:12;;;;;;;;;;;33.60;31.60;;;;;;4853133;29;19934;-81
2022/08/08 12:18:45;;;;;;;;;;;33.50;31.30;;;;;;4860082;29;19928;-82
2022/08/08 12:21:25;;;;;;;;;;;33.40;31.60;;;;;;4854488;29;19934;-87
2022/08/08 12:24:14;;;;;;;;;;;33.40;30.50;;;;;;4859778;29;20350;-81
2022/08/08 12:26:44;;;;;;;;;;;33.30;29.70;;;;;;4861622;29;20293;-86
2022/08/08 12:29:21;;;;;;;;;;;33.30;31.70;;;;;;4879808;29;19932;-81
2022/08/08 12:32:07;;;;;;;;;;;33.30;30.60;;;;;;4874860;29;19937;-82
2022/08/08 12:34:38;;;;;;;;;;;33.00;29.90;;;;;;4879740;29;19970;-82
2022/08/08 12:37:07;;;;;;;;;;;33.00;31.50;;;;;;4877220;29;20379;-87
2022/08/08 12:39:37;;;;;;;;;;;33.20;31.80;;;;;;4880563;29;19935;-81
2022/08/08 12:42:24;;;;;;;;;;;33.40;31.00;;;;;;4869437;29;19979;-82
2022/08/08 12:45:04;;;;;;;;;;;33.70;31.00;;;;;;4890237;29;19928;-82
2022/08/08 12:47:57;;;;;;;;;;;33.70;29.80;;;;;;4875847;29;19997;-82
2022/08/08 12:50:40;;;;;;;;;;;33.50;31.30;;;;;;4876875;29;19931;-82
2022/08/08 12:53:24;;;;;;;;;;;33.50;31.30;;;;;;4887421;29;19928;-87
2022/08/08 12:56:00;;;;;;;;;;;33.50;30.70;;;;;;4880505;29;20000;-82
2022/08/08 12:58:51;;;;;;;;;;;33.70;32.70;;;;;;4869568;29;20408;-82
2022/08/08 13:01:31;;;;;;;;;;;33.70;30.60;;;;;;4873806;29;20018;-82
2022/08/08 13:04:11;;;;;;;;;;;33.70;31.00;;;;;;4876910;29;20000;-82
2022/08/08 13:06:58;;;;;;;;;;;33.70;31.60;;;;;;4887874;29;19983;-87
2022/08/08 13:09:33;;;;;;;;;;;33.80;31.20;;;;;;4877451;29;19974;-81
2022/08/08 13:12:47;;;;;;;;;;;33.80;31.20;;;;;;4884520;29;20403;-82
2022/08/08 13:15:15;;;;;;;;;;;33.90;30.50;;;;;;4873033;29;20308;-87
2022/08/08 13:17:43;;;;;;;;;;;34.20;30.50;;;;;;4881638;29;20388;-82
2022/08/08 13:20:29;;;;;;;;;;;34.40;30.30;;;;;;4883014;29;19928;-81
2022/08/08 13:22:57;;;;;;;;;;;34.30;29.90;;;;;;4879285;29;20453;-82
2022/08/08 13:25:45;;;;;;;;;;;34.30;30.20;;;;;;4883293;29;20014;-82
2022/08/08 13:28:27;;;;;;;;;;;34.50;29.40;;;;;;4871889;29;20341;-87
2022/08/08 13:30:59;;;;;;;;;;;34.70;29.30;;;;;;4881854;29;19936;-85
2022/08/08 13:33:27;;;;;;;;;;;34.90;29.60;;;;;;4873057;29;19931;-81
2022/08/08 13:36:09;;;;;;;;;;;35.00;29.60;;;;;;4876086;29;19935;-86
2022/08/08 13:38:37;;;;;;;;;;;35.40;29.00;;;;;;4867527;29;19928;-82
2022/08/08 13:41:05;;;;;;;;;;;35.40;28.90;;;;;;4875341;29;20381;-82
2022/08/08 13:43:42;;;;;;;;;;;35.40;28.50;;;;;;4876769;29;19936;-86
2022/08/08 13:46:13;;;;;;;;;;;35.40;29.00;;;;;;4875528;29;19980;-82
2022/08/08 13:48:55;;;;;;;;;;;35.30;28.80;;;;;;4865060;29;19992;-83
2022/08/08 13:51:55;;;;;;;;;;;35.40;30.40;;;;;;4877869;29;19954;-81
2022/08/08 13:54:22;;;;;;;;;;;35.70;28.00;;;;;;4880082;29;19984;-81
2022/08/08 13:57:01;;;;;;;;;;;35.40;29.20;;;;;;4864569;29;19963;-81
2022/08/08 13:59:33;;;;;;;;;;;35.40;28.50;;;;;;4888494;29;19939;-82
2022/08/08 14:02:13;;;;;;;;;;;35.20;28.10;;;;;;4881125;29;19928;-81
2022/08/08 14:04:55;;;;;;;;;;;35.10;28.40;;;;;;4878907;29;19935;-81
2022/08/08 14:07:24;;;;;;;;;;;35.40;29.20;;;;;;4869842;29;19928;-82
2022/08/08 14:09:59;;;;;;;;;;;35.40;29.80;;;;;;4878817;29;20018;-87
2022/08/08 14:12:38;;;;;;;;;;;35.60;30.20;;;;;;4869675;29;19942;-81
2022/08/08 14:15:20;;;;;;;;;;;35.80;29.70;;;;;;4877102;29;19963;-82
2022/08/08 14:17:55;;;;;;;;;;;35.90;29.50;;;;;;4887460;29;19928;-82
2022/08/08 14:20:41;;;;;;;;;;;36.00;29.60;;;;;;4883741;29;20010;-87
2022/08/08 14:23:24;;;;;;;;;;;36.10;30.00;;;;;;4873168;29;19927;-81
2022/08/08 14:26:24;;;;;;;;;;;35.90;29.10;;;;;;4880474;29;19963;-81
2022/08/08 14:28:57;;;;;;;;;;;35.90;29.20;;;;;;4873178;29;19936;-87
2022/08/08 14:31:25;;;;;;;;;;;35.70;29.50;;;;;;4869680;29;19928;-82
2022/08/08 14:34:11;;;;;;;;;;;35.70;28.60;;;;;;4866192;29;20034;-82
2022/08/08 14:36:49;;;;;;;;;;;35.60;28.40;;;;;;4863423;29;19966;-87
2022/08/08 14:39:20;;;;;;;;;;;35.90;29.00;;;;;;4881677;29;22730;-82
2022/08/08 14:41:56;;;;;;;;;;;35.80;28.60;;;;;;4869976;29;20007;-82
2022/08/08 14:44:26;;;;;;;;;;;35.90;28.40;;;;;;4865643;29;19935;-81
2022/08/08 14:47:01;;;;;;;;;;;36.10;28.90;;;;;;4862869;29;19928;-81
2022/08/08 14:49:43;;;;;;;;;;;36.30;29.20;;;;;;4875640;29;20296;-83
2022/08/08 14:52:40;;;;;;;;;;;36.40;28.70;;;;;;4874967;29;19986;-81
2022/08/08 14:55:09;;;;;;;;;;;36.30;29.10;;;;;;4865714;29;19975;-81
2022/08/08 14:57:37;;;;;;;;;;;36.20;28.60;;;;;;4859941;29;19932;-81
2022/08/08 15:00:25;;;;;;;;;;;36.20;29.30;;;;;;4864649;29;19928;-81
2022/08/08 15:02:55;;;;;;;;;;;36.40;29.10;;;;;;4878071;29;19928;-80
2022/08/08 15:05:41;;;;;;;;;;;36.70;28.70;;;;;;4866246;29;19939;-80
2022/08/08 15:08:18;;;;;;;;;;;36.70;28.10;;;;;;4873925;29;19928;-81
2022/08/08 15:10:59;;;;;;;;;;;36.60;28.80;;;;;;4861925;29;19934;-81
2022/08/08 15:13:26;;;;;;;;;;;36.50;28.10;;;;;;4860011;29;19927;-81
2022/08/08 15:16:07;;;;;;;;;;;36.50;28.80;;;;;;4859399;29;19932;-80
2022/08/08 15:18:40;;;;;;;;;;;36.50;28.70;;;;;;4856660;29;20011;-81
2022/08/08 15:21:17;;;;;;;;;;;36.30;28.60;;;;;;4880034;29;20301;-81
2022/08/08 15:23:43;;;;;;;;;;;36.10;28.70;;;;;;4874446;29;20309;-81
2022/08/08 15:26:18;;;;;;;;;;;36.00;28.70;;;;;;4872757;29;19958;-80
2022/08/08 15:28:46;;;;;;;;;;;36.00;29.10;;;;;;4870074;29;20357;-79